sensor_id;sensor_type;location;lat;lon;timestamp;temperature;humidity
37998;DHT22;24079;51.824;4.682;2022-08-19T00:00:15;20.60;99.90
37998;DHT22;24079;51.824;4.682;2022-08-19T00:02:42;20.50;99.90
37998;DHT22;24079;51.824;4.682;2022-08-19T00:05:10;20.50;99.90
37998;DHT22;24079;51.824;4.682;2022-08-19T00:07:36;20.50;99.90
37998;DHT22;24079;51.824;4.682;2022-08-19T00:10:04;20.40;99.90
37998;DHT22;24079;51.824;4.682;2022-08-19T00:12:30;20.50;99.90
37998;DHT22;24079;51.824;4.682;2022-08-19T00:14:55;20.40;99.90
37998;DHT22;24079;51.824;4.682;2022-08-19T00:17:21;20.40;99.90
37998;DHT22;24079;51.824;4.682;2022-08-19T00:19:47;20.40;99.90
37998;DHT22;24079;51.824;4.682;2022-08-19T00:22:12;20.30;99.90
37998;DHT22;24079;51.824;4.682;2022-08-19T00:24:38;20.30;99.90
37998;DHT22;24079;51.824;4.682;2022-08-19T00:27:04;20.30;99.90
37998;DHT22;24079;51.824;4.682;2022-08-19T00:29:30;20.30;99.90
37998;DHT22;24079;51.824;4.682;2022-08-19T00:31:56;20.30;99.90
37998;DHT22;24079;51.824;4.682;2022-08-19T00:34:24;20.30;99.90
37998;DHT22;24079;51.824;4.682;2022-08-19T00:36:50;20.30;99.90
37998;DHT22;24079;51.824;4.682;2022-08-19T00:39:16;20.30;99.90
37998;DHT22;24079;51.824;4.682;2022-08-19T00:41:44;20.30;99.90
37998;DHT22;24079;51.824;4.682;2022-08-19T00:44:23;20.30;99.90
37998;DHT22;24079;51.824;4.682;2022-08-19T00:46:50;20.30;99.90
37998;DHT22;24079;51.824;4.682;2022-08-19T00:52:06;20.20;99.90
37998;DHT22;24079;51.824;4.682;2022-08-19T00:54:33;20.20;99.90
37998;DHT22;24079;51.824;4.682;2022-08-19T00:57:05;20.10;99.90
37998;DHT22;24079;51.824;4.682;2022-08-19T00:59:36;20.10;99.90
37998;DHT22;24079;51.824;4.682;2022-08-19T01:02:04;20.10;99.90
37998;DHT22;24079;51.824;4.682;2022-08-19T01:04:29;20.10;99.90
37998;DHT22;24079;51.824;4.682;2022-08-19T01:06:55;20.10;99.90
37998;DHT22;24079;51.824;4.682;2022-08-19T01:09:21;20.10;99.90
37998;DHT22;24079;51.824;4.682;2022-08-19T01:11:47;20.10;99.90
37998;DHT22;24079;51.824;4.682;2022-08-19T01:14:13;20.10;99.90
37998;DHT22;24079;51.824;4.682;2022-08-19T01:16:40;20.10;99.90
37998;DHT22;24079;51.824;4.682;2022-08-19T01:19:15;20.10;99.90
37998;DHT22;24079;51.824;4.682;2022-08-19T01:22:01;20.10;99.90
37998;DHT22;24079;51.824;4.682;2022-08-19T01:24:27;20.10;99.90
37998;DHT22;24079;51.824;4.682;2022-08-19T01:26:53;20.10;99.90
37998;DHT22;24079;51.824;4.682;2022-08-19T01:29:20;20.10;99.90
37998;DHT22;24079;51.824;4.682;2022-08-19T01:31:46;20.00;99.90
37998;DHT22;24079;51.824;4.682;2022-08-19T01:34:11;20.00;99.90
37998;DHT22;24079;51.824;4.682;2022-08-19T01:36:43;20.00;99.90
37998;DHT22;24079;51.824;4.682;2022-08-19T01:39:13;20.00;99.90
37998;DHT22;24079;51.824;4.682;2022-08-19T01:41:39;19.90;99.90
37998;DHT22;24079;51.824;4.682;2022-08-19T01:44:07;19.90;99.90
37998;DHT22;24079;51.824;4.682;2022-08-19T01:46:33;19.90;99.90
37998;DHT22;24079;51.824;4.682;2022-08-19T01:48:59;19.80;99.90
37998;DHT22;24079;51.824;4.682;2022-08-19T01:51:25;19.90;99.90
37998;DHT22;24079;51.824;4.682;2022-08-19T01:53:51;19.90;99.90
37998;DHT22;24079;51.824;4.682;2022-08-19T01:56:18;19.90;99.90
37998;DHT22;24079;51.824;4.682;2022-08-19T01:58:49;19.90;99.90
37998;DHT22;24079;51.824;4.682;2022-08-19T02:01:16;20.00;99.90
37998;DHT22;24079;51.824;4.682;2022-08-19T02:03:42;20.00;99.90
37998;DHT22;24079;51.824;4.682;2022-08-19T02:06:08;20.00;99.90
37998;DHT22;24079;51.824;4.682;2022-08-19T02:08:36;20.00;99.90
37998;DHT22;24079;51.824;4.682;2022-08-19T02:11:03;20.00;99.90
37998;DHT22;24079;51.824;4.682;2022-08-19T02:13:29;20.00;99.90
37998;DHT22;24079;51.824;4.682;2022-08-19T02:15:55;20.00;99.90
37998;DHT22;24079;51.824;4.682;2022-08-19T02:18:20;20.00;99.90
37998;DHT22;24079;51.824;4.682;2022-08-19T02:20:46;19.90;99.90
37998;DHT22;24079;51.824;4.682;2022-08-19T02:23:15;19.90;99.90
37998;DHT22;24079;51.824;4.682;2022-08-19T02:25:43;20.00;99.90
37998;DHT22;24079;51.824;4.682;2022-08-19T02:28:09;20.00;99.90
37998;DHT22;24079;51.824;4.682;2022-08-19T02:30:35;20.00;99.90
37998;DHT22;24079;51.824;4.682;2022-08-19T02:33:00;20.00;99.90
37998;DHT22;24079;51.824;4.682;2022-08-19T02:35:26;20.00;99.90
37998;DHT22;24079;51.824;4.682;2022-08-19T02:37:52;19.90;99.90
37998;DHT22;24079;51.824;4.682;2022-08-19T02:40:36;20.00;99.90
37998;DHT22;24079;51.824;4.682;2022-08-19T02:43:06;19.90;99.90
37998;DHT22;24079;51.824;4.682;2022-08-19T02:45:34;19.90;99.90
37998;DHT22;24079;51.824;4.682;2022-08-19T02:48:02;19.80;99.90
37998;DHT22;24079;51.824;4.682;2022-08-19T02:50:27;19.80;99.90
37998;DHT22;24079;51.824;4.682;2022-08-19T02:52:53;19.80;99.90
37998;DHT22;24079;51.824;4.682;2022-08-19T02:55:19;19.70;99.90
37998;DHT22;24079;51.824;4.682;2022-08-19T02:57:46;19.70;99.90
37998;DHT22;24079;51.824;4.682;2022-08-19T03:00:12;19.70;99.90
37998;DHT22;24079;51.824;4.682;2022-08-19T03:02:38;19.70;99.90
37998;DHT22;24079;51.824;4.682;2022-08-19T03:05:06;19.70;99.90
37998;DHT22;24079;51.824;4.682;2022-08-19T03:07:32;19.80;99.90
37998;DHT22;24079;51.824;4.682;2022-08-19T03:09:57;19.80;99.90
37998;DHT22;24079;51.824;4.682;2022-08-19T03:12:23;19.90;99.90
37998;DHT22;24079;51.824;4.682;2022-08-19T03:14:49;19.80;99.90
37998;DHT22;24079;51.824;4.682;2022-08-19T03:17:14;19.80;99.90
37998;DHT22;24079;51.824;4.682;2022-08-19T03:19:40;19.80;99.90
37998;DHT22;24079;51.824;4.682;2022-08-19T03:22:05;19.70;99.90
37998;DHT22;24079;51.824;4.682;2022-08-19T03:24:31;19.60;99.90
37998;DHT22;24079;51.824;4.682;2022-08-19T03:26:57;19.70;99.90
37998;DHT22;24079;51.824;4.682;2022-08-19T03:29:27;19.60;99.90
37998;DHT22;24079;51.824;4.682;2022-08-19T03:31:53;19.60;99.90
37998;DHT22;24079;51.824;4.682;2022-08-19T03:34:22;19.50;99.90
37998;DHT22;24079;51.824;4.682;2022-08-19T03:36:52;19.40;99.90
37998;DHT22;24079;51.824;4.682;2022-08-19T03:39:17;19.40;99.90
37998;DHT22;24079;51.824;4.682;2022-08-19T03:41:45;19.30;99.90
37998;DHT22;24079;51.824;4.682;2022-08-19T03:44:15;19.30;99.90
37998;DHT22;24079;51.824;4.682;2022-08-19T03:46:41;19.30;99.90
37998;DHT22;24079;51.824;4.682;2022-08-19T03:49:06;19.30;99.90
37998;DHT22;24079;51.824;4.682;2022-08-19T03:51:38;19.20;99.90
37998;DHT22;24079;51.824;4.682;2022-08-19T03:54:06;19.20;99.90
37998;DHT22;24079;51.824;4.682;2022-08-19T03:56:34;19.20;99.90
37998;DHT22;24079;51.824;4.682;2022-08-19T03:59:02;19.20;99.90
37998;DHT22;24079;51.824;4.682;2022-08-19T04:01:28;19.20;99.90
37998;DHT22;24079;51.824;4.682;2022-08-19T04:03:56;19.20;99.90
37998;DHT22;24079;51.824;4.682;2022-08-19T04:06:28;19.20;99.90
37998;DHT22;24079;51.824;4.682;2022-08-19T04:08:56;19.20;99.90
37998;DHT22;24079;51.824;4.682;2022-08-19T04:11:26;19.10;99.90
37998;DHT22;24079;51.824;4.682;2022-08-19T04:13:53;19.10;99.90
37998;DHT22;24079;51.824;4.682;2022-08-19T04:16:21;19.10;99.90
37998;DHT22;24079;51.824;4.682;2022-08-19T04:18:47;19.00;99.90
37998;DHT22;24079;51.824;4.682;2022-08-19T04:21:21;19.00;99.90
37998;DHT22;24079;51.824;4.682;2022-08-19T04:23:48;18.90;99.90
37998;DHT22;24079;51.824;4.682;2022-08-19T04:26:35;18.90;99.90
37998;DHT22;24079;51.824;4.682;2022-08-19T04:29:05;18.80;99.90
37998;DHT22;24079;51.824;4.682;2022-08-19T04:31:32;18.90;99.90
37998;DHT22;24079;51.824;4.682;2022-08-19T04:34:03;18.80;99.90
37998;DHT22;24079;51.824;4.682;2022-08-19T04:36:31;18.80;99.90
37998;DHT22;24079;51.824;4.682;2022-08-19T04:39:00;18.80;99.90
37998;DHT22;24079;51.824;4.682;2022-08-19T04:41:26;18.70;99.90
37998;DHT22;24079;51.824;4.682;2022-08-19T04:44:11;18.70;99.90
37998;DHT22;24079;51.824;4.682;2022-08-19T04:46:37;18.70;99.90
37998;DHT22;24079;51.824;4.682;2022-08-19T04:49:05;18.70;99.90
37998;DHT22;24079;51.824;4.682;2022-08-19T04:51:34;18.70;99.90
37998;DHT22;24079;51.824;4.682;2022-08-19T04:54:02;18.70;99.90
37998;DHT22;24079;51.824;4.682;2022-08-19T04:56:28;18.80;99.90
37998;DHT22;24079;51.824;4.682;2022-08-19T04:58:55;18.70;99.90
37998;DHT22;24079;51.824;4.682;2022-08-19T05:01:26;18.80;99.90
37998;DHT22;24079;51.824;4.682;2022-08-19T05:03:54;18.80;99.90
37998;DHT22;24079;51.824;4.682;2022-08-19T05:06:21;18.80;99.90
37998;DHT22;24079;51.824;4.682;2022-08-19T05:08:47;18.80;99.90
37998;DHT22;24079;51.824;4.682;2022-08-19T05:11:22;18.90;99.90
37998;DHT22;24079;51.824;4.682;2022-08-19T05:13:48;18.90;99.90
37998;DHT22;24079;51.824;4.682;2022-08-19T05:16:15;18.90;99.90
37998;DHT22;24079;51.824;4.682;2022-08-19T05:18:41;19.00;99.90
37998;DHT22;24079;51.824;4.682;2022-08-19T05:21:27;19.00;99.90
37998;DHT22;24079;51.824;4.682;2022-08-19T05:24:12;19.00;99.90
37998;DHT22;24079;51.824;4.682;2022-08-19T05:26:40;18.90;99.90
37998;DHT22;24079;51.824;4.682;2022-08-19T05:29:07;18.90;99.90
37998;DHT22;24079;51.824;4.682;2022-08-19T05:31:34;18.90;99.90
37998;DHT22;24079;51.824;4.682;2022-08-19T05:34:01;18.90;99.90
37998;DHT22;24079;51.824;4.682;2022-08-19T05:36:29;18.90;99.90
37998;DHT22;24079;51.824;4.682;2022-08-19T05:38:58;19.00;99.90
37998;DHT22;24079;51.824;4.682;2022-08-19T05:41:23;19.00;99.90
37998;DHT22;24079;51.824;4.682;2022-08-19T05:43:55;19.00;99.90
37998;DHT22;24079;51.824;4.682;2022-08-19T05:46:21;19.00;99.90
37998;DHT22;24079;51.824;4.682;2022-08-19T05:48:47;19.00;99.90
37998;DHT22;24079;51.824;4.682;2022-08-19T05:51:14;19.10;99.90
37998;DHT22;24079;51.824;4.682;2022-08-19T05:53:40;19.10;99.90
37998;DHT22;24079;51.824;4.682;2022-08-19T05:56:08;19.10;99.90
37998;DHT22;24079;51.824;4.682;2022-08-19T05:58:35;19.20;99.90
37998;DHT22;24079;51.824;4.682;2022-08-19T06:01:00;19.20;99.90
37998;DHT22;24079;51.824;4.682;2022-08-19T06:03:30;19.10;99.90
37998;DHT22;24079;51.824;4.682;2022-08-19T06:05:57;19.10;99.90
37998;DHT22;24079;51.824;4.682;2022-08-19T06:08:24;19.10;99.90
37998;DHT22;24079;51.824;4.682;2022-08-19T06:10:50;19.20;99.90
37998;DHT22;24079;51.824;4.682;2022-08-19T06:13:16;19.20;99.90
37998;DHT22;24079;51.824;4.682;2022-08-19T06:15:42;19.20;99.90
37998;DHT22;24079;51.824;4.682;2022-08-19T06:18:09;19.30;99.90
37998;DHT22;24079;51.824;4.682;2022-08-19T06:20:35;19.30;99.90
37998;DHT22;24079;51.824;4.682;2022-08-19T06:23:00;19.30;99.90
37998;DHT22;24079;51.824;4.682;2022-08-19T06:25:26;19.40;99.90
37998;DHT22;24079;51.824;4.682;2022-08-19T06:27:51;19.40;99.90
37998;DHT22;24079;51.824;4.682;2022-08-19T06:30:18;19.40;99.90
37998;DHT22;24079;51.824;4.682;2022-08-19T06:32:43;19.50;99.90
37998;DHT22;24079;51.824;4.682;2022-08-19T06:35:09;19.60;99.90
37998;DHT22;24079;51.824;4.682;2022-08-19T06:37:36;19.60;99.90
37998;DHT22;24079;51.824;4.682;2022-08-19T06:40:03;19.60;99.90
37998;DHT22;24079;51.824;4.682;2022-08-19T06:42:29;19.50;99.90
37998;DHT22;24079;51.824;4.682;2022-08-19T06:44:55;19.60;99.90
37998;DHT22;24079;51.824;4.682;2022-08-19T06:47:21;19.60;99.90
37998;DHT22;24079;51.824;4.682;2022-08-19T06:49:47;19.60;99.90
37998;DHT22;24079;51.824;4.682;2022-08-19T06:52:13;19.50;99.90
37998;DHT22;24079;51.824;4.682;2022-08-19T06:54:40;19.50;99.90
37998;DHT22;24079;51.824;4.682;2022-08-19T06:57:06;19.60;99.90
37998;DHT22;24079;51.824;4.682;2022-08-19T06:59:34;19.60;99.90
37998;DHT22;24079;51.824;4.682;2022-08-19T07:02:03;19.70;99.90
37998;DHT22;24079;51.824;4.682;2022-08-19T07:04:34;19.70;99.90
37998;DHT22;24079;51.824;4.682;2022-08-19T07:07:09;19.80;99.90
37998;DHT22;24079;51.824;4.682;2022-08-19T07:09:39;19.90;99.90
37998;DHT22;24079;51.824;4.682;2022-08-19T07:12:07;19.90;99.90
37998;DHT22;24079;51.824;4.682;2022-08-19T07:14:35;19.90;99.90
37998;DHT22;24079;51.824;4.682;2022-08-19T07:17:07;19.80;99.90
37998;DHT22;24079;51.824;4.682;2022-08-19T07:19:34;19.80;99.90
37998;DHT22;24079;51.824;4.682;2022-08-19T07:22:02;19.90;99.90
37998;DHT22;24079;51.824;4.682;2022-08-19T07:24:29;20.00;99.90
37998;DHT22;24079;51.824;4.682;2022-08-19T07:26:57;20.00;99.90
37998;DHT22;24079;51.824;4.682;2022-08-19T07:29:26;20.20;99.90
37998;DHT22;24079;51.824;4.682;2022-08-19T07:31:54;20.20;99.90
37998;DHT22;24079;51.824;4.682;2022-08-19T07:34:23;20.20;99.90
37998;DHT22;24079;51.824;4.682;2022-08-19T07:36:49;20.30;99.90
37998;DHT22;24079;51.824;4.682;2022-08-19T07:39:18;20.40;99.90
37998;DHT22;24079;51.824;4.682;2022-08-19T07:41:44;20.50;99.90
37998;DHT22;24079;51.824;4.682;2022-08-19T07:44:11;20.60;99.90
37998;DHT22;24079;51.824;4.682;2022-08-19T07:46:39;20.60;99.90
37998;DHT22;24079;51.824;4.682;2022-08-19T07:49:06;20.70;99.90
37998;DHT22;24079;51.824;4.682;2022-08-19T07:51:33;21.00;99.90
37998;DHT22;24079;51.824;4.682;2022-08-19T07:53:58;21.20;99.90
37998;DHT22;24079;51.824;4.682;2022-08-19T07:56:25;21.20;99.90
37998;DHT22;24079;51.824;4.682;2022-08-19T07:58:51;21.20;99.90
37998;DHT22;24079;51.824;4.682;2022-08-19T08:01:23;21.20;99.90
37998;DHT22;24079;51.824;4.682;2022-08-19T08:03:51;21.40;99.90
37998;DHT22;24079;51.824;4.682;2022-08-19T08:06:36;21.40;99.90
37998;DHT22;24079;51.824;4.682;2022-08-19T08:09:29;21.30;99.90
37998;DHT22;24079;51.824;4.682;2022-08-19T08:11:59;21.20;99.90
37998;DHT22;24079;51.824;4.682;2022-08-19T08:14:35;21.20;99.90
37998;DHT22;24079;51.824;4.682;2022-08-19T08:17:02;21.30;99.90
37998;DHT22;24079;51.824;4.682;2022-08-19T08:19:28;21.40;99.90
37998;DHT22;24079;51.824;4.682;2022-08-19T08:21:57;21.50;99.90
37998;DHT22;24079;51.824;4.682;2022-08-19T08:24:24;21.60;99.90
37998;DHT22;24079;51.824;4.682;2022-08-19T08:26:49;21.70;99.90
37998;DHT22;24079;51.824;4.682;2022-08-19T08:29:15;21.60;99.90
37998;DHT22;24079;51.824;4.682;2022-08-19T08:31:42;21.70;99.90
37998;DHT22;24079;51.824;4.682;2022-08-19T08:34:10;21.80;99.90
37998;DHT22;24079;51.824;4.682;2022-08-19T08:36:38;21.90;99.90
37998;DHT22;24079;51.824;4.682;2022-08-19T08:39:17;22.00;99.90
37998;DHT22;24079;51.824;4.682;2022-08-19T08:42:20;22.10;99.90
37998;DHT22;24079;51.824;4.682;2022-08-19T08:45:10;22.20;99.90
37998;DHT22;24079;51.824;4.682;2022-08-19T08:47:42;22.20;99.90
37998;DHT22;24079;51.824;4.682;2022-08-19T08:50:22;22.30;99.90
37998;DHT22;24079;51.824;4.682;2022-08-19T08:52:52;22.40;99.90
37998;DHT22;24079;51.824;4.682;2022-08-19T08:55:25;22.30;99.90
37998;DHT22;24079;51.824;4.682;2022-08-19T08:57:59;22.20;99.90
37998;DHT22;24079;51.824;4.682;2022-08-19T09:00:28;22.20;99.90
37998;DHT22;24079;51.824;4.682;2022-08-19T09:02:55;22.20;99.90
37998;DHT22;24079;51.824;4.682;2022-08-19T09:05:24;22.20;99.90
37998;DHT22;24079;51.824;4.682;2022-08-19T09:08:02;22.30;99.90
37998;DHT22;24079;51.824;4.682;2022-08-19T09:10:50;22.30;99.90
37998;DHT22;24079;51.824;4.682;2022-08-19T09:15:48;22.60;99.90
37998;DHT22;24079;51.824;4.682;2022-08-19T09:18:15;23.10;99.90
37998;DHT22;24079;51.824;4.682;2022-08-19T09:20:42;23.40;99.90
37998;DHT22;24079;51.824;4.682;2022-08-19T09:23:07;23.50;99.90
37998;DHT22;24079;51.824;4.682;2022-08-19T09:25:33;23.40;99.90
37998;DHT22;24079;51.824;4.682;2022-08-19T09:28:00;23.40;99.90
37998;DHT22;24079;51.824;4.682;2022-08-19T09:30:30;23.60;99.90
37998;DHT22;24079;51.824;4.682;2022-08-19T09:32:56;23.50;99.90
37998;DHT22;24079;51.824;4.682;2022-08-19T09:35:24;23.40;99.90
37998;DHT22;24079;51.824;4.682;2022-08-19T09:37:51;23.80;99.90
37998;DHT22;24079;51.824;4.682;2022-08-19T09:40:17;24.40;99.90
37998;DHT22;24079;51.824;4.682;2022-08-19T09:42:44;24.70;99.90
37998;DHT22;24079;51.824;4.682;2022-08-19T09:45:11;25.00;99.90
37998;DHT22;24079;51.824;4.682;2022-08-19T09:47:37;25.30;99.90
37998;DHT22;24079;51.824;4.682;2022-08-19T09:50:08;25.40;99.90
37998;DHT22;24079;51.824;4.682;2022-08-19T09:52:34;25.70;99.90
37998;DHT22;24079;51.824;4.682;2022-08-19T09:55:07;25.70;99.90
37998;DHT22;24079;51.824;4.682;2022-08-19T09:57:33;25.80;99.90
37998;DHT22;24079;51.824;4.682;2022-08-19T09:59:59;25.80;99.90
37998;DHT22;24079;51.824;4.682;2022-08-19T10:02:25;25.70;99.90
37998;DHT22;24079;51.824;4.682;2022-08-19T10:04:51;25.40;99.90
37998;DHT22;24079;51.824;4.682;2022-08-19T10:07:36;24.80;99.90
37998;DHT22;24079;51.824;4.682;2022-08-19T10:10:06;24.30;99.90
37998;DHT22;24079;51.824;4.682;2022-08-19T10:12:33;24.20;99.90
37998;DHT22;24079;51.824;4.682;2022-08-19T10:14:59;24.30;99.90
37998;DHT22;24079;51.824;4.682;2022-08-19T10:17:25;24.50;99.90
37998;DHT22;24079;51.824;4.682;2022-08-19T10:19:51;24.60;99.90
37998;DHT22;24079;51.824;4.682;2022-08-19T10:22:18;24.40;99.90
37998;DHT22;24079;51.824;4.682;2022-08-19T10:24:45;24.50;99.90
37998;DHT22;24079;51.824;4.682;2022-08-19T10:27:11;24.80;99.90
37998;DHT22;24079;51.824;4.682;2022-08-19T10:29:38;25.00;99.90
37998;DHT22;24079;51.824;4.682;2022-08-19T10:32:06;25.00;99.90
37998;DHT22;24079;51.824;4.682;2022-08-19T10:34:33;25.20;99.90
37998;DHT22;24079;51.824;4.682;2022-08-19T10:37:00;25.40;99.90
37998;DHT22;24079;51.824;4.682;2022-08-19T10:39:26;25.40;99.90
37998;DHT22;24079;51.824;4.682;2022-08-19T10:41:54;25.20;99.90
37998;DHT22;24079;51.824;4.682;2022-08-19T10:44:21;25.00;99.90
37998;DHT22;24079;51.824;4.682;2022-08-19T10:46:48;24.80;99.90
37998;DHT22;24079;51.824;4.682;2022-08-19T10:49:14;24.30;99.90
37998;DHT22;24079;51.824;4.682;2022-08-19T10:51:40;24.00;99.90
37998;DHT22;24079;51.824;4.682;2022-08-19T10:54:25;23.70;99.90
37998;DHT22;24079;51.824;4.682;2022-08-19T10:57:09;23.60;99.90
37998;DHT22;24079;51.824;4.682;2022-08-19T10:59:35;23.70;99.90
37998;DHT22;24079;51.824;4.682;2022-08-19T11:02:02;23.70;99.90
37998;DHT22;24079;51.824;4.682;2022-08-19T11:04:28;23.80;99.90
37998;DHT22;24079;51.824;4.682;2022-08-19T11:06:55;23.90;99.90
37998;DHT22;24079;51.824;4.682;2022-08-19T11:09:23;24.20;99.90
37998;DHT22;24079;51.824;4.682;2022-08-19T11:11:58;24.30;99.90
37998;DHT22;24079;51.824;4.682;2022-08-19T11:14:24;24.30;99.90
37998;DHT22;24079;51.824;4.682;2022-08-19T11:16:52;24.40;99.90
37998;DHT22;24079;51.824;4.682;2022-08-19T11:19:21;24.60;99.90
37998;DHT22;24079;51.824;4.682;2022-08-19T11:21:50;24.80;99.90
37998;DHT22;24079;51.824;4.682;2022-08-19T11:24:22;24.90;99.90
37998;DHT22;24079;51.824;4.682;2022-08-19T11:26:50;24.90;99.90
37998;DHT22;24079;51.824;4.682;2022-08-19T11:29:18;24.90;99.90
37998;DHT22;24079;51.824;4.682;2022-08-19T11:31:46;24.90;99.90
37998;DHT22;24079;51.824;4.682;2022-08-19T11:34:16;24.90;99.90
37998;DHT22;24079;51.824;4.682;2022-08-19T11:36:44;25.00;99.90
37998;DHT22;24079;51.824;4.682;2022-08-19T11:39:12;25.20;99.90
37998;DHT22;24079;51.824;4.682;2022-08-19T11:41:39;25.10;99.90
37998;DHT22;24079;51.824;4.682;2022-08-19T11:44:05;25.00;99.90
37998;DHT22;24079;51.824;4.682;2022-08-19T11:46:37;25.00;99.90
37998;DHT22;24079;51.824;4.682;2022-08-19T11:49:03;25.20;99.90
37998;DHT22;24079;51.824;4.682;2022-08-19T11:51:31;25.20;99.90
37998;DHT22;24079;51.824;4.682;2022-08-19T11:53:58;25.40;99.90
37998;DHT22;24079;51.824;4.682;2022-08-19T11:56:24;25.30;99.90
37998;DHT22;24079;51.824;4.682;2022-08-19T11:58:51;25.30;99.90
37998;DHT22;24079;51.824;4.682;2022-08-19T12:01:19;25.60;99.90
37998;DHT22;24079;51.824;4.682;2022-08-19T12:03:47;25.50;99.90
37998;DHT22;24079;51.824;4.682;2022-08-19T12:06:16;25.40;99.90
37998;DHT22;24079;51.824;4.682;2022-08-19T12:08:43;25.50;99.90
37998;DHT22;24079;51.824;4.682;2022-08-19T12:11:09;25.40;99.90
37998;DHT22;24079;51.824;4.682;2022-08-19T12:13:36;25.30;99.90
37998;DHT22;24079;51.824;4.682;2022-08-19T12:16:11;25.30;99.90
37998;DHT22;24079;51.824;4.682;2022-08-19T12:18:38;25.20;99.90
37998;DHT22;24079;51.824;4.682;2022-08-19T12:21:04;25.30;99.90
37998;DHT22;24079;51.824;4.682;2022-08-19T12:23:30;25.40;99.90
37998;DHT22;24079;51.824;4.682;2022-08-19T12:25:56;25.40;99.90
37998;DHT22;24079;51.824;4.682;2022-08-19T12:28:24;25.10;99.90
37998;DHT22;24079;51.824;4.682;2022-08-19T12:30:50;25.00;99.90
37998;DHT22;24079;51.824;4.682;2022-08-19T12:33:17;25.00;99.90
37998;DHT22;24079;51.824;4.682;2022-08-19T12:35:44;24.90;99.90
37998;DHT22;24079;51.824;4.682;2022-08-19T12:38:12;24.80;99.90
37998;DHT22;24079;51.824;4.682;2022-08-19T12:40:38;24.60;99.90
37998;DHT22;24079;51.824;4.682;2022-08-19T12:43:08;24.60;99.90
37998;DHT22;24079;51.824;4.682;2022-08-19T12:45:34;24.50;99.90
37998;DHT22;24079;51.824;4.682;2022-08-19T12:48:00;24.40;99.90
37998;DHT22;24079;51.824;4.682;2022-08-19T12:50:26;24.30;99.90
37998;DHT22;24079;51.824;4.682;2022-08-19T12:52:51;24.40;99.90
37998;DHT22;24079;51.824;4.682;2022-08-19T12:55:17;24.30;99.90
37998;DHT22;24079;51.824;4.682;2022-08-19T12:57:44;24.30;99.90
37998;DHT22;24079;51.824;4.682;2022-08-19T13:00:16;24.30;99.90
37998;DHT22;24079;51.824;4.682;2022-08-19T13:02:47;24.40;99.90
37998;DHT22;24079;51.824;4.682;2022-08-19T13:05:20;24.40;99.90
37998;DHT22;24079;51.824;4.682;2022-08-19T13:07:48;24.50;99.90
37998;DHT22;24079;51.824;4.682;2022-08-19T13:10:18;24.30;99.90
37998;DHT22;24079;51.824;4.682;2022-08-19T13:12:45;24.00;99.90
37998;DHT22;24079;51.824;4.682;2022-08-19T13:15:11;23.90;99.90
37998;DHT22;24079;51.824;4.682;2022-08-19T13:17:38;23.70;99.90
37998;DHT22;24079;51.824;4.682;2022-08-19T13:20:06;23.50;99.90
37998;DHT22;24079;51.824;4.682;2022-08-19T13:22:33;23.30;99.90
37998;DHT22;24079;51.824;4.682;2022-08-19T13:25:01;23.10;99.90
37998;DHT22;24079;51.824;4.682;2022-08-19T13:27:27;22.90;99.90
37998;DHT22;24079;51.824;4.682;2022-08-19T13:29:52;22.80;99.90
37998;DHT22;24079;51.824;4.682;2022-08-19T13:32:36;22.90;99.90
37998;DHT22;24079;51.824;4.682;2022-08-19T13:35:20;22.90;99.90
37998;DHT22;24079;51.824;4.682;2022-08-19T13:37:46;23.00;99.90
37998;DHT22;24079;51.824;4.682;2022-08-19T13:42:40;23.20;99.90
37998;DHT22;24079;51.824;4.682;2022-08-19T13:45:06;23.20;99.90
37998;DHT22;24079;51.824;4.682;2022-08-19T13:47:34;23.20;99.90
37998;DHT22;24079;51.824;4.682;2022-08-19T13:50:02;23.60;99.90
37998;DHT22;24079;51.824;4.682;2022-08-19T13:52:27;24.00;99.90
37998;DHT22;24079;51.824;4.682;2022-08-19T13:54:53;24.10;99.90
37998;DHT22;24079;51.824;4.682;2022-08-19T13:57:19;24.00;99.90
37998;DHT22;24079;51.824;4.682;2022-08-19T13:59:44;24.00;99.90
37998;DHT22;24079;51.824;4.682;2022-08-19T14:02:10;24.10;99.90
37998;DHT22;24079;51.824;4.682;2022-08-19T14:04:36;24.40;99.90
37998;DHT22;24079;51.824;4.682;2022-08-19T14:07:03;24.60;99.90
37998;DHT22;24079;51.824;4.682;2022-08-19T14:09:29;24.80;99.90
37998;DHT22;24079;51.824;4.682;2022-08-19T14:11:55;24.80;99.90
37998;DHT22;24079;51.824;4.682;2022-08-19T14:14:20;24.70;99.90
37998;DHT22;24079;51.824;4.682;2022-08-19T14:16:47;24.50;99.90
37998;DHT22;24079;51.824;4.682;2022-08-19T14:19:12;24.40;99.90
37998;DHT22;24079;51.824;4.682;2022-08-19T14:21:38;24.20;99.90
37998;DHT22;24079;51.824;4.682;2022-08-19T14:24:06;24.10;99.90
37998;DHT22;24079;51.824;4.682;2022-08-19T14:26:32;24.00;99.90
37998;DHT22;24079;51.824;4.682;2022-08-19T14:28:58;24.20;99.90
37998;DHT22;24079;51.824;4.682;2022-08-19T14:31:23;24.20;99.90
37998;DHT22;24079;51.824;4.682;2022-08-19T14:33:50;24.20;99.90
37998;DHT22;24079;51.824;4.682;2022-08-19T14:36:17;24.20;99.90
37998;DHT22;24079;51.824;4.682;2022-08-19T14:38:43;24.10;99.90
37998;DHT22;24079;51.824;4.682;2022-08-19T14:41:13;23.90;99.90
37998;DHT22;24079;51.824;4.682;2022-08-19T14:43:43;23.90;99.90
37998;DHT22;24079;51.824;4.682;2022-08-19T14:46:11;23.80;99.90
37998;DHT22;24079;51.824;4.682;2022-08-19T14:48:38;23.80;99.90
37998;DHT22;24079;51.824;4.682;2022-08-19T14:51:05;23.70;99.90
37998;DHT22;24079;51.824;4.682;2022-08-19T14:53:32;23.50;99.90
37998;DHT22;24079;51.824;4.682;2022-08-19T14:55:59;23.50;99.90
37998;DHT22;24079;51.824;4.682;2022-08-19T14:58:26;23.40;99.90
37998;DHT22;24079;51.824;4.682;2022-08-19T15:00:52;23.40;99.90
37998;DHT22;24079;51.824;4.682;2022-08-19T15:03:18;23.50;99.90
37998;DHT22;24079;51.824;4.682;2022-08-19T15:05:43;23.40;99.90
37998;DHT22;24079;51.824;4.682;2022-08-19T15:08:09;23.40;99.90
37998;DHT22;24079;51.824;4.682;2022-08-19T15:10:35;23.40;99.90
37998;DHT22;24079;51.824;4.682;2022-08-19T15:13:01;23.40;99.90
37998;DHT22;24079;51.824;4.682;2022-08-19T15:15:27;23.50;99.90
37998;DHT22;24079;51.824;4.682;2022-08-19T15:17:53;23.70;99.90
37998;DHT22;24079;51.824;4.682;2022-08-19T15:20:20;23.80;99.90
37998;DHT22;24079;51.824;4.682;2022-08-19T15:22:47;23.50;99.90
37998;DHT22;24079;51.824;4.682;2022-08-19T15:25:15;23.50;99.90
37998;DHT22;24079;51.824;4.682;2022-08-19T15:27:41;23.30;99.90
37998;DHT22;24079;51.824;4.682;2022-08-19T15:30:08;23.40;99.90
37998;DHT22;24079;51.824;4.682;2022-08-19T15:32:35;23.40;99.90
37998;DHT22;24079;51.824;4.682;2022-08-19T15:35:02;23.40;99.90
37998;DHT22;24079;51.824;4.682;2022-08-19T15:37:29;23.40;99.90
37998;DHT22;24079;51.824;4.682;2022-08-19T15:39:54;23.20;99.90
37998;DHT22;24079;51.824;4.682;2022-08-19T15:42:20;23.10;99.90